createdAt,value
2018-11-05T00:00:17.609Z,14.90
2018-11-05T00:02:46.593Z,15.00
2018-11-05T00:05:15.258Z,14.90
2018-11-05T00:07:43.814Z,14.90
2018-11-05T00:10:12.702Z,14.90
2018-11-05T00:12:41.636Z,15.00
2018-11-05T00:15:10.194Z,14.90
2018-11-05T00:17:39.298Z,14.90
2018-11-05T00:20:09.268Z,14.90
2018-11-05T00:22:38.046Z,14.90
2018-11-05T00:25:08.057Z,14.90
2018-11-05T00:27:36.633Z,14.90
2018-11-05T00:30:05.600Z,14.90
2018-11-05T00:32:34.175Z,14.90
2018-11-05T00:35:02.730Z,14.90
2018-11-05T00:37:31.286Z,14.90
2018-11-05T00:39:59.853Z,14.90
2018-11-05T00:42:28.854Z,14.90
2018-11-05T00:44:57.736Z,14.90
2018-11-05T00:47:26.482Z,14.90
2018-11-05T00:49:55.023Z,14.90
2018-11-05T00:52:23.795Z,14.90
2018-11-05T00:54:52.397Z,14.90
2018-11-05T00:57:20.934Z,14.90
2018-11-05T00:59:49.664Z,14.90
2018-11-05T01:02:18.209Z,14.90
2018-11-05T01:04:46.755Z,14.90
2018-11-05T01:07:15.283Z,14.90
2018-11-05T01:09:43.910Z,14.90
2018-11-05T01:12:12.591Z,14.90
2018-11-05T01:14:41.238Z,14.90
2018-11-05T01:17:09.996Z,14.90
2018-11-05T01:19:38.545Z,14.90
2018-11-05T01:22:07.093Z,14.90
2018-11-05T01:24:35.843Z,14.90
2018-11-05T01:27:04.400Z,14.90
2018-11-05T01:29:32.966Z,14.90
2018-11-05T01:32:01.560Z,14.90
2018-11-05T01:34:30.352Z,14.90
2018-11-05T01:36:59.133Z,14.90
2018-11-05T01:39:27.789Z,14.90
2018-11-05T01:41:56.517Z,14.90
2018-11-05T01:44:25.221Z,14.90
2018-11-05T01:46:53.864Z,14.90
2018-11-05T01:49:22.847Z,14.90
2018-11-05T01:51:51.471Z,14.90
2018-11-05T01:54:20.113Z,14.90
2018-11-05T01:56:48.905Z,14.90
2018-11-05T01:59:17.516Z,14.90
2018-11-05T02:01:46.208Z,14.90
2018-11-05T02:04:15.066Z,14.90
2018-11-05T02:06:43.845Z,14.90
2018-11-05T02:09:12.421Z,14.90
2018-11-05T02:11:41.211Z,14.90
2018-11-05T02:14:09.764Z,14.90
2018-11-05T02:16:38.398Z,14.90
2018-11-05T02:19:06.971Z,14.90
2018-11-05T02:21:35.536Z,14.90
2018-11-05T02:24:04.085Z,14.90
2018-11-05T02:26:32.752Z,14.90
2018-11-05T02:29:01.317Z,14.90
2018-11-05T02:31:29.917Z,14.90
2018-11-05T02:33:59.388Z,14.90
2018-11-05T02:36:28.301Z,14.90
2018-11-05T02:38:57.084Z,14.90
2018-11-05T02:41:25.681Z,14.90
2018-11-05T02:43:54.256Z,14.90
2018-11-05T02:46:22.815Z,14.90
2018-11-05T02:48:51.644Z,14.90
2018-11-05T02:51:20.199Z,14.90
2018-11-05T02:53:48.870Z,14.90
2018-11-05T02:56:17.630Z,14.90
2018-11-05T02:58:46.337Z,14.90
2018-11-05T03:01:15.057Z,14.90
2018-11-05T03:03:43.818Z,14.90
2018-11-05T03:06:12.867Z,14.90
2018-11-05T03:08:41.578Z,14.90
2018-11-05T03:11:10.370Z,14.90
2018-11-05T03:13:39.353Z,14.90
2018-11-05T03:16:07.971Z,14.90
2018-11-05T03:18:36.755Z,14.80
2018-11-05T03:21:05.627Z,14.90
2018-11-05T03:23:34.306Z,14.80
2018-11-05T03:26:03.100Z,14.80
2018-11-05T03:28:31.737Z,14.80
2018-11-05T03:31:00.493Z,14.80
2018-11-05T03:33:29.368Z,14.80
2018-11-05T03:35:58.372Z,14.90
2018-11-05T03:38:27.271Z,14.80
2018-11-05T03:40:56.060Z,14.80
2018-11-05T03:43:24.944Z,14.90
2018-11-05T03:45:53.599Z,14.80
2018-11-05T03:48:22.375Z,14.80
2018-11-05T03:50:51.286Z,14.80
2018-11-05T03:53:19.968Z,14.80
2018-11-05T03:55:48.769Z,14.80
2018-11-05T03:58:17.697Z,14.80
2018-11-05T04:00:46.561Z,14.80
2018-11-05T04:03:15.351Z,14.80
2018-11-05T04:05:43.990Z,14.80
2018-11-05T04:08:12.652Z,14.80
2018-11-05T04:10:41.397Z,14.80
2018-11-05T04:13:10.191Z,14.80
2018-11-05T04:15:40.661Z,14.80
2018-11-05T04:18:09.125Z,14.80
2018-11-05T04:20:38.225Z,14.80
2018-11-05T04:23:06.989Z,14.80
2018-11-05T04:25:36.091Z,14.80
2018-11-05T04:28:04.741Z,14.80
2018-11-05T04:30:33.463Z,14.80
2018-11-05T04:33:02.167Z,14.80
2018-11-05T04:35:31.051Z,14.80
2018-11-05T04:37:59.687Z,14.80
2018-11-05T04:40:28.477Z,14.80
2018-11-05T04:42:57.342Z,14.80
2018-11-05T04:45:26.270Z,14.80
2018-11-05T04:47:55.080Z,14.80
2018-11-05T04:50:23.874Z,14.80
2018-11-05T04:52:52.796Z,14.70
2018-11-05T04:55:21.392Z,14.80
2018-11-05T04:57:50.143Z,14.80
2018-11-05T05:00:19.225Z,14.70
2018-11-05T05:02:48.356Z,14.70
2018-11-05T05:05:17.425Z,14.80
2018-11-05T05:07:46.084Z,14.80
2018-11-05T05:10:14.862Z,14.70
2018-11-05T05:12:43.979Z,14.70
2018-11-05T05:15:13.081Z,14.70
2018-11-05T05:17:42.447Z,14.80
2018-11-05T05:20:13.359Z,14.80
2018-11-05T05:22:42.556Z,14.70
2018-11-05T05:25:11.278Z,14.70
2018-11-05T05:27:40.363Z,14.70
2018-11-05T05:30:11.467Z,14.70
2018-11-05T05:32:40.087Z,14.70
2018-11-05T05:35:08.928Z,14.70
2018-11-05T05:37:37.565Z,14.70
2018-11-05T05:40:07.548Z,14.70
2018-11-05T05:42:36.818Z,14.70
2018-11-05T05:45:06.498Z,14.70
2018-11-05T05:47:35.368Z,14.70
2018-11-05T05:50:05.262Z,14.70
2018-11-05T05:52:34.270Z,14.70
2018-11-05T05:55:03.297Z,14.70
2018-11-05T05:57:32.289Z,14.70
2018-11-05T06:00:01.524Z,14.70
2018-11-05T06:02:30.152Z,14.70
2018-11-05T06:04:58.953Z,14.70
2018-11-05T06:07:27.614Z,14.70
2018-11-05T06:09:56.850Z,14.70
2018-11-05T06:12:25.856Z,14.70
2018-11-05T06:14:54.457Z,14.70
2018-11-05T06:17:23.308Z,14.70
2018-11-05T06:19:52.210Z,14.70
2018-11-05T06:22:21.000Z,14.70
2018-11-05T06:24:49.896Z,14.70
2018-11-05T06:27:18.487Z,14.70
2018-11-05T06:29:47.266Z,14.70
2018-11-05T06:32:15.951Z,14.70
2018-11-05T06:34:44.850Z,14.70
2018-11-05T06:37:13.752Z,14.60
2018-11-05T06:39:42.390Z,14.60
2018-11-05T06:42:11.048Z,14.70
2018-11-05T06:44:39.717Z,14.70
2018-11-05T06:47:08.767Z,14.70
2018-11-05T06:49:37.572Z,14.60
2018-11-05T06:52:06.241Z,14.70
2018-11-05T06:54:35.018Z,14.70
2018-11-05T06:57:03.840Z,14.70
2018-11-05T06:59:32.830Z,14.60
2018-11-05T07:02:01.615Z,14.70
2018-11-05T07:04:30.504Z,14.70
2018-11-05T07:06:59.318Z,14.70
2018-11-05T07:09:28.085Z,14.60
2018-11-05T07:11:56.988Z,14.70
2018-11-05T07:14:25.799Z,14.60
2018-11-05T07:16:54.488Z,14.70
2018-11-05T07:19:23.649Z,14.60
2018-11-05T07:21:52.376Z,14.70
2018-11-05T07:24:21.008Z,14.60
2018-11-05T07:26:49.930Z,14.70
2018-11-05T07:29:18.715Z,14.70
2018-11-05T07:31:47.389Z,14.60
2018-11-05T07:34:16.175Z,14.70
2018-11-05T07:36:44.720Z,14.70
2018-11-05T07:39:13.376Z,14.70
2018-11-05T07:41:42.220Z,14.70
2018-11-05T07:44:10.837Z,14.70
2018-11-05T07:46:39.601Z,14.70
2018-11-05T07:49:08.318Z,14.70
2018-11-05T07:51:37.076Z,14.70
2018-11-05T07:54:05.774Z,14.70
2018-11-05T07:56:34.490Z,14.70
2018-11-05T07:59:03.110Z,14.70
2018-11-05T08:01:31.831Z,14.70
2018-11-05T08:04:00.521Z,14.70
2018-11-05T08:06:29.334Z,14.70
2018-11-05T08:08:58.142Z,14.70
2018-11-05T08:11:26.913Z,14.70
2018-11-05T08:13:55.699Z,14.70
2018-11-05T08:16:24.363Z,14.70
2018-11-05T08:18:53.170Z,14.70
2018-11-05T08:21:21.954Z,14.70
2018-11-05T08:23:50.745Z,14.70
2018-11-05T08:26:19.531Z,14.70
2018-11-05T08:28:48.407Z,14.70
2018-11-05T08:31:17.337Z,14.70
2018-11-05T08:33:46.074Z,14.70
2018-11-05T08:36:14.772Z,14.70
2018-11-05T08:38:43.421Z,14.70
2018-11-05T08:41:11.986Z,14.70
2018-11-05T08:43:40.568Z,14.70
2018-11-05T08:46:09.269Z,14.70
2018-11-05T08:48:37.933Z,14.70
2018-11-05T08:51:08.084Z,14.80
2018-11-05T08:53:36.882Z,14.70
2018-11-05T08:56:06.061Z,14.70
2018-11-05T08:58:34.809Z,14.80
2018-11-05T09:01:08.917Z,14.70
2018-11-05T09:03:37.841Z,14.80
2018-11-05T09:06:07.173Z,14.80
2018-11-05T09:08:35.955Z,14.80
2018-11-05T09:11:05.200Z,14.80
2018-11-05T09:13:33.608Z,14.80
2018-11-05T09:16:02.344Z,14.80
2018-11-05T09:18:31.191Z,14.80
2018-11-05T09:20:59.869Z,14.80
2018-11-05T09:23:28.584Z,14.80
2018-11-05T09:25:57.505Z,14.80
2018-11-05T09:28:26.222Z,14.80
2018-11-05T09:30:54.940Z,14.80
2018-11-05T09:33:23.521Z,14.80
2018-11-05T09:35:52.104Z,14.80
2018-11-05T09:38:20.866Z,14.80
2018-11-05T09:40:49.550Z,14.80
2018-11-05T09:43:18.156Z,14.80
2018-11-05T09:45:46.781Z,14.90
2018-11-05T09:48:15.556Z,14.80
2018-11-05T09:50:44.421Z,14.80
2018-11-05T09:53:13.071Z,14.90
2018-11-05T09:55:41.727Z,14.80
2018-11-05T09:58:10.580Z,14.80
2018-11-05T10:00:40.111Z,14.80
2018-11-05T10:03:15.706Z,14.80
2018-11-05T10:05:44.476Z,14.90
2018-11-05T10:08:13.489Z,14.90
2018-11-05T10:10:42.292Z,14.90
2018-11-05T10:13:11.158Z,14.90
2018-11-05T10:15:39.902Z,14.90
2018-11-05T10:18:08.553Z,14.90
2018-11-05T10:20:37.238Z,14.90
2018-11-05T10:23:06.292Z,14.90
2018-11-05T10:25:35.094Z,14.90
2018-11-05T10:28:07.946Z,14.90
2018-11-05T10:30:36.699Z,14.90
2018-11-05T10:33:05.765Z,14.90
2018-11-05T10:35:39.791Z,14.90
2018-11-05T10:38:08.561Z,14.90
2018-11-05T10:40:37.430Z,14.90
2018-11-05T10:43:06.518Z,14.90
2018-11-05T10:45:35.485Z,14.90
2018-11-05T10:48:04.399Z,14.90
2018-11-05T10:50:33.179Z,14.90
2018-11-05T10:53:02.107Z,14.90
2018-11-05T10:55:31.263Z,14.90
2018-11-05T10:58:00.323Z,14.90
2018-11-05T11:00:34.413Z,14.90
2018-11-05T11:03:08.371Z,14.90
2018-11-05T11:05:37.135Z,14.90
2018-11-05T11:08:06.185Z,14.90
2018-11-05T11:10:35.005Z,15.00
2018-11-05T11:13:03.968Z,14.90
2018-11-05T11:15:32.688Z,14.90
2018-11-05T11:18:01.326Z,15.00
2018-11-05T11:20:30.233Z,15.00
2018-11-05T11:22:58.901Z,15.00
2018-11-05T11:25:27.724Z,15.00
2018-11-05T11:27:56.416Z,15.00
2018-11-05T11:30:25.211Z,15.00
2018-11-05T11:32:54.289Z,15.00
2018-11-05T11:35:23.391Z,15.00
2018-11-05T11:37:52.380Z,15.00
2018-11-05T11:40:22.475Z,15.00
2018-11-05T11:42:51.299Z,15.00
2018-11-05T11:45:21.229Z,15.00
2018-11-05T11:47:49.914Z,15.00
2018-11-05T11:50:18.888Z,15.00
2018-11-05T11:52:48.234Z,15.00
2018-11-05T11:55:17.950Z,15.00
2018-11-05T11:57:46.684Z,15.00
2018-11-05T12:00:18.189Z,15.00
2018-11-05T12:02:47.581Z,15.00
2018-11-05T12:05:16.395Z,15.00
2018-11-05T12:07:45.113Z,15.00
2018-11-05T12:10:16.607Z,15.00
2018-11-05T12:12:45.608Z,15.00
2018-11-05T12:15:15.220Z,15.10
2018-11-05T12:17:44.646Z,15.10
2018-11-05T12:20:19.012Z,15.10
2018-11-05T12:22:48.650Z,15.10
2018-11-05T12:25:17.331Z,15.10
2018-11-05T12:27:46.213Z,15.10
2018-11-05T12:30:19.962Z,15.10
2018-11-05T12:32:49.623Z,15.10
2018-11-05T12:35:18.507Z,15.10
2018-11-05T12:37:48.546Z,15.10
2018-11-05T12:40:18.557Z,15.10
2018-11-05T12:42:48.564Z,15.10
2018-11-05T12:45:17.250Z,15.20
2018-11-05T12:47:46.343Z,15.20
2018-11-05T12:50:17.494Z,15.20
2018-11-05T12:52:47.027Z,15.20
2018-11-05T12:55:15.910Z,15.20
2018-11-05T12:57:45.236Z,15.20
2018-11-05T13:00:16.466Z,15.20
2018-11-05T13:02:49.326Z,15.20
2018-11-05T13:05:18.108Z,15.20
2018-11-05T13:07:46.877Z,15.20
2018-11-05T13:10:15.805Z,15.20
2018-11-05T13:12:44.491Z,15.20
2018-11-05T13:15:13.193Z,15.30
2018-11-05T13:17:42.174Z,15.30
2018-11-05T13:20:16.094Z,15.20
2018-11-05T13:22:45.550Z,15.20
2018-11-05T13:25:14.236Z,15.20
2018-11-05T13:27:44.191Z,15.30
2018-11-05T13:30:13.517Z,15.30
2018-11-05T13:32:42.892Z,15.30
2018-11-05T13:35:13.700Z,15.30
2018-11-05T13:37:42.934Z,15.30
2018-11-05T13:40:13.516Z,15.30
2018-11-05T13:42:42.640Z,15.30
2018-11-05T13:45:12.676Z,15.30
2018-11-05T13:47:42.116Z,15.30
2018-11-05T13:50:11.623Z,15.30
2018-11-05T13:52:40.330Z,15.30
2018-11-05T13:55:11.113Z,15.30
2018-11-05T13:57:40.342Z,15.30
2018-11-05T14:00:10.981Z,15.30
2018-11-05T14:02:40.289Z,15.30
2018-11-05T14:05:09.845Z,15.30
2018-11-05T14:07:39.894Z,15.30
2018-11-05T14:10:14.701Z,15.30
2018-11-05T14:12:44.574Z,15.30
2018-11-05T14:15:13.333Z,15.30
2018-11-05T14:17:43.000Z,15.30
2018-11-05T14:20:12.649Z,15.30
2018-11-05T14:22:41.809Z,15.30
2018-11-05T14:25:12.575Z,15.30
2018-11-05T14:27:42.370Z,15.30
2018-11-05T14:30:12.125Z,15.30
2018-11-05T14:32:41.916Z,15.30
2018-11-05T14:35:10.539Z,15.30
2018-11-05T14:37:39.411Z,15.20
2018-11-05T14:40:09.575Z,15.30
2018-11-05T14:42:38.560Z,15.20
2018-11-05T14:45:09.118Z,15.20
2018-11-05T14:47:38.192Z,15.20
2018-11-05T14:50:09.218Z,15.30
2018-11-05T14:52:38.048Z,15.20
2018-11-05T14:55:08.509Z,15.20
2018-11-05T14:57:37.771Z,15.20
2018-11-05T15:00:14.091Z,15.20
2018-11-05T15:02:44.639Z,15.20
2018-11-05T15:05:14.343Z,15.20
2018-11-05T15:07:44.093Z,15.20
2018-11-05T15:10:15.154Z,15.20
2018-11-05T15:12:44.557Z,15.20
2018-11-05T15:15:14.685Z,15.20
2018-11-05T15:17:44.105Z,15.20
2018-11-05T15:20:14.984Z,15.20
2018-11-05T15:22:43.689Z,15.20
2018-11-05T15:25:13.002Z,15.20
2018-11-05T15:27:42.004Z,15.20
2018-11-05T15:30:13.275Z,15.20
2018-11-05T15:32:42.470Z,15.20
2018-11-05T15:35:11.453Z,15.20
2018-11-05T15:37:41.269Z,15.20
2018-11-05T15:40:11.617Z,15.20
2018-11-05T15:42:40.719Z,15.20
2018-11-05T15:45:12.132Z,15.20
2018-11-05T15:47:41.971Z,15.20
2018-11-05T15:50:12.764Z,15.20
2018-11-05T15:52:42.190Z,15.20
2018-11-05T15:55:11.053Z,15.20
2018-11-05T15:57:40.209Z,15.20
2018-11-05T16:00:17.777Z,15.10
2018-11-05T16:02:48.421Z,15.10
2018-11-05T16:05:17.627Z,15.10
2018-11-05T16:07:46.783Z,15.10
2018-11-05T16:10:15.752Z,15.10
2018-11-05T16:12:44.662Z,15.10
2018-11-05T16:15:13.973Z,15.10
2018-11-05T16:17:45.541Z,15.10
2018-11-05T16:20:15.671Z,15.10
2018-11-05T16:22:46.090Z,15.10
2018-11-05T16:25:14.930Z,15.10
2018-11-05T16:27:43.920Z,15.10
2018-11-05T16:30:14.873Z,15.10
2018-11-05T16:32:44.562Z,15.10
2018-11-05T16:35:13.392Z,15.10
2018-11-05T16:37:43.456Z,15.10
2018-11-05T16:40:18.898Z,15.10
2018-11-05T16:42:49.093Z,15.10
2018-11-05T16:45:17.826Z,15.10
2018-11-05T16:47:46.993Z,15.10
2018-11-05T16:50:19.272Z,15.10
2018-11-05T16:52:48.320Z,15.10
2018-11-05T16:55:17.236Z,15.10
2018-11-05T16:57:46.355Z,15.10
2018-11-05T17:00:15.663Z,15.10
2018-11-05T17:02:45.288Z,15.10
2018-11-05T17:05:13.809Z,15.00
2018-11-05T17:07:42.900Z,15.00
2018-11-05T17:10:12.849Z,15.00
2018-11-05T17:12:42.255Z,15.00
2018-11-05T17:15:12.756Z,15.00
2018-11-05T17:17:42.020Z,15.00
2018-11-05T17:20:12.313Z,15.00
2018-11-05T17:22:41.861Z,15.00
2018-11-05T17:25:11.517Z,15.00
2018-11-05T17:27:40.832Z,15.00
2018-11-05T17:30:15.373Z,15.00
2018-11-05T17:32:44.561Z,15.00
2018-11-05T17:35:13.718Z,15.00
2018-11-05T17:37:43.143Z,15.00
2018-11-05T17:40:14.547Z,15.00
2018-11-05T17:42:43.664Z,15.00
2018-11-05T17:45:13.913Z,15.00
2018-11-05T17:47:43.729Z,15.00
2018-11-05T17:50:14.583Z,15.00
2018-11-05T17:52:43.646Z,15.00
2018-11-05T17:55:13.091Z,15.00
2018-11-05T17:57:42.820Z,15.00
2018-11-05T18:00:14.796Z,15.00
2018-11-05T18:02:43.749Z,15.00
2018-11-05T18:05:13.856Z,15.00
2018-11-05T18:07:43.223Z,15.00
2018-11-05T18:10:12.019Z,15.00
2018-11-05T18:12:40.852Z,15.00
2018-11-05T18:15:13.664Z,15.00
2018-11-05T18:17:43.514Z,15.00
2018-11-05T18:20:16.166Z,15.00
2018-11-05T18:22:46.421Z,14.90
2018-11-05T18:25:16.893Z,14.90
2018-11-05T18:27:46.289Z,15.00
2018-11-05T18:30:15.813Z,14.90
2018-11-05T18:32:44.692Z,14.90
2018-11-05T18:35:14.397Z,14.90
2018-11-05T18:37:44.818Z,14.90
2018-11-05T18:40:14.735Z,14.90
2018-11-05T18:42:44.260Z,14.90
2018-11-05T18:45:13.268Z,14.90
2018-11-05T18:47:42.195Z,14.90
2018-11-05T18:50:12.760Z,14.90
2018-11-05T18:52:42.685Z,14.90
2018-11-05T18:55:13.792Z,14.90
2018-11-05T18:57:42.610Z,14.90
2018-11-05T19:00:18.964Z,14.90
2018-11-05T19:02:48.424Z,14.90
2018-11-05T19:05:39.173Z,14.90
2018-11-05T19:08:08.434Z,14.90
2018-11-05T19:10:37.185Z,14.90
2018-11-05T19:13:06.251Z,14.90
2018-11-05T19:15:34.940Z,14.90
2018-11-05T19:18:03.763Z,14.90
2018-11-05T19:20:32.723Z,14.90
2018-11-05T19:23:01.656Z,14.90
2018-11-05T19:25:30.194Z,14.90
2018-11-05T19:27:59.281Z,14.90
2018-11-05T19:30:28.668Z,14.90
2018-11-05T19:32:57.368Z,14.90
2018-11-05T19:35:26.352Z,14.90
2018-11-05T19:37:55.088Z,14.90
2018-11-05T19:40:24.033Z,14.90
2018-11-05T19:42:53.363Z,14.90
2018-11-05T19:45:23.212Z,14.90
2018-11-05T19:47:52.403Z,14.90
2018-11-05T19:50:22.729Z,14.90
2018-11-05T19:52:52.417Z,14.90
2018-11-05T19:55:21.514Z,14.90
2018-11-05T19:57:51.105Z,14.90
2018-11-05T20:00:27.360Z,14.90
2018-11-05T20:02:57.067Z,14.90
2018-11-05T20:05:25.971Z,14.90
2018-11-05T20:07:55.817Z,14.90
2018-11-05T20:10:24.578Z,14.90
2018-11-05T20:12:53.363Z,14.90
2018-11-05T20:15:22.317Z,14.90
2018-11-05T20:17:52.128Z,14.80
2018-11-05T20:20:21.954Z,14.80
2018-11-05T20:22:50.722Z,14.80
2018-11-05T20:25:20.098Z,14.90
2018-11-05T20:27:49.085Z,14.90
2018-11-05T20:30:20.309Z,14.90
2018-11-05T20:32:50.268Z,14.90
2018-11-05T20:35:19.193Z,14.80
2018-11-05T20:37:48.009Z,14.90
2018-11-05T20:40:17.849Z,14.80
2018-11-05T20:42:48.032Z,14.80
2018-11-05T20:45:17.425Z,14.80
2018-11-05T20:47:46.142Z,14.80
2018-11-05T20:50:15.887Z,14.80
2018-11-05T20:52:44.553Z,14.80
2018-11-05T20:55:14.868Z,14.80
2018-11-05T20:57:43.928Z,14.80
2018-11-05T21:00:14.238Z,14.80
2018-11-05T21:02:43.315Z,14.80
2018-11-05T21:05:12.369Z,14.80
2018-11-05T21:07:42.029Z,14.80
2018-11-05T21:10:11.856Z,14.80
2018-11-05T21:12:41.447Z,14.80
2018-11-05T21:15:14.241Z,14.80
2018-11-05T21:17:43.557Z,14.80
2018-11-05T21:20:12.900Z,14.80
2018-11-05T21:22:41.939Z,14.80
2018-11-05T21:25:10.883Z,14.80
2018-11-05T21:27:40.465Z,14.80
2018-11-05T21:30:10.850Z,14.80
2018-11-05T21:32:39.860Z,14.80
2018-11-05T21:35:10.902Z,14.80
2018-11-05T21:37:40.093Z,14.80
2018-11-05T21:40:09.700Z,14.80
2018-11-05T21:42:38.750Z,14.80
2018-11-05T21:45:08.827Z,14.80
2018-11-05T21:47:38.117Z,14.80
2018-11-05T21:50:09.601Z,14.80
2018-11-05T21:52:38.885Z,14.80
2018-11-05T21:55:08.182Z,14.80
2018-11-05T21:57:37.974Z,14.70
2018-11-05T22:00:09.825Z,14.70
2018-11-05T22:02:43.825Z,14.80
2018-11-05T22:05:12.747Z,14.70
2018-11-05T22:07:41.419Z,14.70
2018-11-05T22:10:10.602Z,14.80
2018-11-05T22:12:39.508Z,14.70
2018-11-05T22:15:08.654Z,14.70
2018-11-05T22:17:37.438Z,14.70
2018-11-05T22:20:07.073Z,14.70
2018-11-05T22:22:35.799Z,14.70
2018-11-05T22:25:04.764Z,14.80
2018-11-05T22:27:33.638Z,14.70
2018-11-05T22:30:02.261Z,14.70
2018-11-05T22:32:31.261Z,14.70
2018-11-05T22:35:00.871Z,14.70
2018-11-05T22:37:29.871Z,14.70
2018-11-05T22:39:58.747Z,14.70
2018-11-05T22:42:27.750Z,14.70
2018-11-05T22:44:56.739Z,14.70
2018-11-05T22:47:25.393Z,14.70
2018-11-05T22:49:54.026Z,14.70
2018-11-05T22:52:22.784Z,14.70
2018-11-05T22:54:51.580Z,14.70
2018-11-05T22:57:20.206Z,14.70
2018-11-05T22:59:48.946Z,14.70
2018-11-05T23:02:17.682Z,14.70
2018-11-05T23:04:46.412Z,14.70
2018-11-05T23:07:15.212Z,14.70
2018-11-05T23:09:44.029Z,14.70
2018-11-05T23:12:12.742Z,14.70
2018-11-05T23:14:41.392Z,14.70
2018-11-05T23:17:10.028Z,14.70
2018-11-05T23:19:38.687Z,14.70
2018-11-05T23:22:07.590Z,14.70
2018-11-05T23:24:36.238Z,14.70
2018-11-05T23:27:05.026Z,14.70
2018-11-05T23:29:33.821Z,14.70
2018-11-05T23:32:02.619Z,14.70
2018-11-05T23:34:31.296Z,14.70
2018-11-05T23:37:00.083Z,14.70
2018-11-05T23:39:28.756Z,14.70
2018-11-05T23:41:57.561Z,14.70
2018-11-05T23:44:26.446Z,14.70
2018-11-05T23:46:55.113Z,14.70
2018-11-05T23:49:23.819Z,14.70
2018-11-05T23:51:52.718Z,14.70
2018-11-05T23:54:21.604Z,14.60
2018-11-05T23:56:50.317Z,14.70
2018-11-05T23:59:18.964Z,14.70
